createdAt,value
2018-10-12T00:01:08.533Z,11.88
2018-10-12T00:03:37.298Z,13.20
2018-10-12T00:10:52.476Z,13.20
2018-10-12T00:13:21.198Z,11.30
2018-10-12T00:15:49.949Z,12.43
2018-10-12T00:18:18.702Z,11.70
2018-10-12T00:20:47.523Z,12.00
2018-10-12T00:23:16.257Z,12.18
2018-10-12T00:25:44.976Z,12.20
2018-10-12T00:28:13.773Z,12.88
2018-10-12T00:30:42.505Z,12.25
2018-10-12T00:33:11.213Z,14.90
2018-10-12T00:35:39.920Z,11.83
2018-10-12T00:38:08.648Z,12.35
2018-10-12T00:40:38.616Z,13.68
2018-10-12T00:43:07.323Z,12.00
2018-10-12T00:45:36.093Z,13.85
2018-10-12T00:48:04.818Z,12.63
2018-10-12T00:50:33.532Z,12.53
2018-10-12T00:53:02.287Z,13.15
2018-10-12T00:55:32.828Z,13.22
2018-10-12T00:58:01.483Z,12.30
2018-10-12T01:00:30.193Z,13.18
2018-10-12T01:02:59.006Z,12.20
2018-10-12T01:05:27.720Z,12.27
2018-10-12T01:07:56.485Z,14.60
2018-10-12T01:10:25.283Z,13.03
2018-10-12T01:12:54.012Z,14.20
2018-10-12T01:15:22.752Z,13.07
2018-10-12T01:17:51.426Z,12.70
2018-10-12T01:20:20.232Z,14.23
2018-10-12T01:22:48.913Z,13.75
2018-10-12T01:25:17.639Z,14.57
2018-10-12T01:27:46.326Z,14.73
2018-10-12T01:30:15.115Z,14.57
2018-10-12T01:32:49.040Z,15.23
2018-10-12T01:35:17.721Z,13.17
2018-10-12T01:37:46.415Z,12.90
2018-10-12T01:40:15.174Z,13.17
2018-10-12T01:42:43.999Z,13.43
2018-10-12T01:45:12.761Z,14.67
2018-10-12T01:47:41.512Z,14.37
2018-10-12T01:50:10.262Z,13.70
2018-10-12T01:52:38.981Z,13.90
2018-10-12T01:55:07.726Z,14.40
2018-10-12T01:57:36.469Z,14.37
2018-10-12T02:00:05.570Z,13.00
2018-10-12T02:02:34.475Z,13.27
2018-10-12T02:05:03.158Z,13.33
2018-10-12T02:07:31.872Z,14.13
2018-10-12T02:10:00.612Z,13.67
2018-10-12T02:12:29.296Z,15.70
2018-10-12T02:14:58.031Z,14.50
2018-10-12T02:17:26.741Z,13.77
2018-10-12T02:19:55.418Z,14.03
2018-10-12T02:22:24.272Z,14.90
2018-10-12T02:24:52.994Z,14.67
2018-10-12T02:27:21.941Z,15.07
2018-10-12T02:29:50.632Z,15.40
2018-10-12T02:32:19.340Z,21.90
2018-10-12T02:34:48.056Z,14.60
2018-10-12T02:37:16.775Z,18.03
2018-10-12T02:39:45.452Z,16.00
2018-10-12T02:42:14.408Z,14.43
2018-10-12T02:44:43.067Z,15.20
2018-10-12T02:47:11.829Z,14.63
2018-10-12T02:49:40.646Z,14.63
2018-10-12T02:52:09.366Z,14.97
2018-10-12T02:54:38.070Z,14.57
2018-10-12T02:57:06.972Z,14.90
2018-10-12T02:59:35.691Z,14.23
2018-10-12T03:02:04.394Z,14.40
2018-10-12T03:04:33.092Z,14.80
2018-10-12T03:07:01.867Z,14.83
2018-10-12T03:09:30.581Z,14.13
2018-10-12T03:11:59.260Z,14.63
2018-10-12T03:14:27.970Z,15.57
2018-10-12T03:16:56.664Z,14.43
2018-10-12T03:19:25.395Z,13.93
2018-10-12T03:21:54.112Z,13.43
2018-10-12T03:24:22.815Z,15.30
2018-10-12T03:26:51.575Z,14.33
2018-10-12T03:29:20.353Z,13.57
2018-10-12T03:31:49.117Z,15.73
2018-10-12T03:34:17.957Z,15.00
2018-10-12T03:36:46.835Z,13.83
2018-10-12T03:39:15.544Z,12.70
2018-10-12T03:41:44.269Z,14.43
2018-10-12T03:44:13.010Z,14.07
2018-10-12T03:46:41.770Z,13.07
2018-10-12T03:49:10.495Z,15.67
2018-10-12T03:51:39.221Z,13.03
2018-10-12T03:54:07.920Z,13.87
2018-10-12T03:56:36.579Z,13.70
2018-10-12T03:59:05.201Z,14.10
2018-10-12T04:01:33.891Z,14.13
2018-10-12T04:04:02.591Z,13.63
2018-10-12T04:06:31.717Z,14.93
2018-10-12T04:09:00.445Z,15.10
2018-10-12T04:11:29.163Z,15.53
2018-10-12T04:13:57.839Z,15.63
2018-10-12T04:16:26.512Z,15.87
2018-10-12T04:18:55.201Z,15.00
2018-10-12T04:21:23.877Z,15.43
2018-10-12T04:23:52.576Z,14.73
2018-10-12T04:26:21.300Z,15.00
2018-10-12T04:28:50.016Z,14.60
2018-10-12T04:31:18.726Z,15.27
2018-10-12T04:33:47.422Z,13.80
2018-10-12T04:36:16.091Z,13.17
2018-10-12T04:38:55.768Z,13.80
2018-10-12T04:41:24.862Z,12.73
2018-10-12T04:43:54.988Z,13.57
2018-10-12T04:46:30.147Z,16.50
2018-10-12T04:48:59.032Z,14.03
2018-10-12T04:51:31.868Z,13.77
2018-10-12T04:54:00.681Z,14.17
2018-10-12T04:56:29.460Z,14.50
2018-10-12T04:58:58.216Z,14.07
2018-10-12T05:01:26.964Z,13.47
2018-10-12T05:03:55.755Z,14.50
2018-10-12T05:06:24.503Z,15.23
2018-10-12T05:08:53.193Z,14.97
2018-10-12T05:11:21.915Z,14.83
2018-10-12T05:13:50.642Z,17.20
2018-10-12T05:16:19.374Z,14.83
2018-10-12T05:18:48.100Z,13.33
2018-10-12T05:21:16.778Z,15.17
2018-10-12T05:23:45.479Z,15.03
2018-10-12T05:26:14.177Z,13.40
2018-10-12T05:28:42.922Z,13.10
2018-10-12T05:31:11.587Z,13.63
2018-10-12T05:33:40.254Z,15.57
2018-10-12T05:36:09.025Z,13.67
2018-10-12T05:38:37.678Z,13.73
2018-10-12T05:41:06.689Z,13.17
2018-10-12T05:43:35.457Z,16.27
2018-10-12T05:46:04.174Z,13.63
2018-10-12T05:48:43.924Z,12.77
2018-10-12T05:51:13.752Z,13.07
2018-10-12T05:53:42.829Z,13.33
2018-10-12T05:56:12.876Z,13.43
2018-10-12T05:58:42.243Z,15.43
2018-10-12T06:01:11.031Z,12.83
2018-10-12T06:03:39.723Z,11.93
2018-10-12T06:06:08.480Z,12.90
2018-10-12T06:08:37.300Z,12.00
2018-10-12T06:11:06.011Z,12.63
2018-10-12T06:13:35.283Z,12.77
2018-10-12T06:16:03.976Z,12.90
2018-10-12T06:18:32.632Z,12.87
2018-10-12T06:21:01.365Z,13.10
2018-10-12T06:23:30.068Z,12.17
2018-10-12T06:25:58.711Z,14.77
2018-10-12T06:28:27.465Z,12.73
2018-10-12T06:30:56.158Z,13.50
2018-10-12T06:33:24.874Z,12.63
2018-10-12T06:35:53.545Z,12.70
2018-10-12T06:38:22.223Z,12.50
2018-10-12T06:40:50.913Z,14.63
2018-10-12T06:43:19.553Z,13.83
2018-10-12T06:45:48.273Z,13.47
2018-10-12T06:48:17.012Z,12.67
2018-10-12T06:50:45.726Z,13.30
2018-10-12T06:53:14.446Z,13.57
2018-10-12T06:55:43.181Z,14.43
2018-10-12T06:58:11.844Z,12.73
2018-10-12T07:00:40.603Z,13.23
2018-10-12T07:03:09.381Z,12.97
2018-10-12T07:05:38.150Z,14.10
2018-10-12T07:08:06.939Z,13.33
2018-10-12T07:10:35.677Z,13.97
2018-10-12T07:13:04.458Z,14.57
2018-10-12T07:15:33.229Z,14.10
2018-10-12T07:18:01.915Z,14.53
2018-10-12T07:20:30.634Z,15.23
2018-10-12T07:22:59.292Z,14.70
2018-10-12T07:25:28.014Z,13.37
2018-10-12T07:27:56.675Z,15.77
2018-10-12T07:30:25.391Z,18.60
2018-10-12T07:32:54.139Z,14.07
2018-10-12T07:35:22.899Z,19.93
2018-10-12T07:37:51.566Z,13.20
2018-10-12T07:40:20.285Z,13.80
2018-10-12T07:42:49.036Z,13.20
2018-10-12T07:45:17.721Z,11.03
2018-10-12T07:47:46.411Z,11.97
2018-10-12T07:50:15.129Z,12.80
2018-10-12T07:52:43.816Z,12.33
2018-10-12T07:55:12.528Z,11.37
2018-10-12T07:57:41.234Z,10.68
2018-10-12T08:00:10.199Z,10.30
2018-10-12T08:02:38.826Z,10.58
2018-10-12T08:05:07.615Z,11.88
2018-10-12T08:07:36.288Z,15.85
2018-10-12T08:10:05.040Z,9.58
2018-10-12T08:12:33.790Z,9.83
2018-10-12T08:15:02.509Z,9.73
2018-10-12T08:17:31.265Z,10.70
2018-10-12T08:20:00.261Z,7.60
2018-10-12T08:22:29.035Z,7.75
2018-10-12T08:24:57.762Z,10.53
2018-10-12T08:27:26.443Z,7.17
2018-10-12T08:29:56.354Z,8.85
2018-10-12T08:32:25.171Z,7.35
2018-10-12T08:34:53.846Z,5.45
2018-10-12T08:37:22.562Z,5.35
2018-10-12T08:39:51.299Z,5.00
2018-10-12T08:42:19.992Z,4.42
2018-10-12T08:44:48.680Z,3.90
2018-10-12T08:47:17.383Z,3.87
2018-10-12T08:49:46.095Z,4.80
2018-10-12T08:52:14.807Z,4.20
2018-10-12T08:54:43.536Z,5.72
2018-10-12T08:57:12.183Z,4.20
2018-10-12T08:59:41.135Z,6.80
2018-10-12T09:02:09.780Z,4.08
2018-10-12T09:04:38.456Z,6.35
2018-10-12T09:07:07.372Z,3.25
2018-10-12T09:09:36.096Z,3.12
2018-10-12T09:12:04.851Z,5.00
2018-10-12T09:14:33.518Z,3.75
2018-10-12T09:17:02.232Z,4.75
2018-10-12T09:19:31.456Z,5.53
2018-10-12T09:22:00.643Z,4.22
2018-10-12T09:24:29.343Z,4.58
2018-10-12T09:26:58.032Z,5.33
2018-10-12T09:29:26.759Z,3.90
2018-10-12T09:31:55.454Z,2.87
2018-10-12T09:34:24.103Z,2.67
2018-10-12T09:36:52.829Z,3.70
2018-10-12T09:39:21.511Z,2.72
2018-10-12T09:41:50.211Z,3.83
2018-10-12T09:44:19.147Z,2.70
2018-10-12T09:46:47.931Z,2.80
2018-10-12T09:49:16.844Z,2.85
2018-10-12T09:51:45.801Z,3.08
2018-10-12T09:54:14.500Z,3.12
2018-10-12T09:56:47.392Z,3.17
2018-10-12T09:59:16.105Z,2.80
2018-10-12T10:01:50.018Z,3.50
2018-10-12T10:04:22.937Z,7.10
2018-10-12T10:06:51.651Z,3.58
2018-10-12T10:09:20.391Z,3.27
2018-10-12T10:11:49.400Z,3.30
2018-10-12T10:14:17.890Z,46.75
2018-10-12T10:16:46.617Z,3.98
2018-10-12T10:19:15.435Z,3.52
2018-10-12T10:21:44.150Z,4.75
2018-10-12T10:24:12.856Z,5.28
2018-10-12T10:26:41.536Z,3.87
2018-10-12T10:29:10.299Z,4.83
2018-10-12T10:31:39.233Z,2.83
2018-10-12T10:34:08.498Z,5.10
2018-10-12T10:36:37.054Z,3.47
2018-10-12T10:39:08.145Z,4.53
2018-10-12T10:41:36.809Z,3.40
2018-10-12T10:44:05.517Z,3.92
2018-10-12T10:46:34.267Z,4.40
2018-10-12T10:49:03.098Z,3.40
2018-10-12T10:51:32.077Z,5.50
2018-10-12T10:54:00.744Z,3.87
2018-10-12T10:56:29.471Z,6.17
2018-10-12T10:58:58.267Z,4.10
2018-10-12T11:01:26.970Z,3.33
2018-10-12T11:03:55.622Z,3.77
2018-10-12T11:06:24.388Z,4.30
2018-10-12T11:08:53.064Z,3.98
2018-10-12T11:11:21.779Z,4.67
2018-10-12T11:13:50.515Z,5.15
2018-10-12T11:16:19.192Z,4.12
2018-10-12T11:18:47.870Z,3.30
2018-10-12T11:21:16.575Z,4.37
2018-10-12T11:23:45.261Z,8.88
2018-10-12T11:26:14.014Z,4.60
2018-10-12T11:28:42.757Z,5.33
2018-10-12T11:31:11.406Z,4.45
2018-10-12T11:33:40.073Z,4.42
2018-10-12T11:36:08.746Z,4.87
2018-10-12T11:38:37.421Z,3.02
2018-10-12T11:41:06.919Z,5.03
2018-10-12T11:43:37.043Z,2.58
2018-10-12T11:46:05.925Z,2.58
2018-10-12T11:48:34.718Z,2.67
2018-10-12T11:51:03.450Z,5.40
2018-10-12T11:53:32.197Z,4.50
2018-10-12T11:56:00.910Z,2.58
2018-10-12T11:58:29.606Z,3.70
2018-10-12T12:00:58.421Z,3.35
2018-10-12T12:03:27.138Z,3.02
2018-10-12T12:05:55.820Z,3.58
2018-10-12T12:08:24.532Z,3.08
2018-10-12T12:10:53.407Z,3.37
2018-10-12T12:13:22.058Z,3.62
2018-10-12T12:15:50.764Z,2.75
2018-10-12T12:18:19.448Z,2.52
2018-10-12T12:20:48.093Z,3.37
2018-10-12T12:23:16.775Z,4.22
2018-10-12T12:25:45.477Z,5.05
2018-10-12T12:28:14.140Z,2.80
2018-10-12T12:30:42.814Z,2.50
2018-10-12T12:33:11.522Z,2.37
2018-10-12T12:35:40.471Z,4.78
2018-10-12T12:38:08.981Z,3.95
2018-10-12T12:40:38.057Z,3.35
2018-10-12T12:43:06.836Z,3.37
2018-10-12T12:45:35.537Z,3.30
2018-10-12T12:48:04.518Z,3.25
2018-10-12T12:50:33.081Z,5.00
2018-10-12T12:53:01.785Z,2.87
2018-10-12T12:55:30.452Z,4.65
2018-10-12T12:57:59.236Z,3.42
2018-10-12T13:00:28.103Z,4.05
2018-10-12T13:02:56.820Z,3.33
2018-10-12T13:05:25.508Z,2.87
2018-10-12T13:07:54.236Z,3.45
2018-10-12T13:10:22.967Z,2.90
2018-10-12T13:12:51.698Z,4.65
2018-10-12T13:15:20.603Z,3.22
2018-10-12T13:17:49.301Z,2.92
2018-10-12T13:20:18.056Z,3.00
2018-10-12T13:22:46.795Z,4.53
2018-10-12T13:25:15.496Z,3.08
2018-10-12T13:27:43.799Z,5.47
2018-10-12T13:30:12.524Z,3.90
2018-10-12T13:32:41.670Z,3.45
2018-10-12T13:35:10.415Z,5.95
2018-10-12T13:37:39.115Z,4.35
2018-10-12T13:40:07.824Z,4.40
2018-10-12T13:42:36.533Z,4.42
2018-10-12T13:45:05.316Z,5.92
2018-10-12T13:47:34.038Z,3.17
2018-10-12T13:50:02.734Z,2.35
2018-10-12T13:52:31.476Z,2.50
2018-10-12T13:55:00.152Z,2.58
2018-10-12T13:57:28.991Z,3.02
2018-10-12T13:59:57.688Z,5.03
2018-10-12T14:02:26.404Z,2.55
2018-10-12T14:04:55.065Z,8.10
2018-10-12T14:07:23.727Z,3.00
2018-10-12T14:09:52.400Z,7.12
2018-10-12T14:12:21.163Z,3.92
2018-10-12T14:14:49.845Z,2.30
2018-10-12T14:17:18.532Z,7.62
2018-10-12T14:19:47.338Z,3.70
2018-10-12T14:22:16.031Z,4.35
2018-10-12T14:24:44.795Z,2.45
2018-10-12T14:27:13.540Z,3.22
2018-10-12T14:29:42.268Z,2.10
2018-10-12T14:32:10.988Z,3.42
2018-10-12T14:34:39.653Z,4.20
2018-10-12T14:37:08.325Z,3.85
2018-10-12T14:39:36.979Z,2.40
2018-10-12T14:42:05.736Z,1.90
2018-10-12T14:44:34.476Z,2.15
2018-10-12T14:47:03.235Z,2.40
2018-10-12T14:49:31.907Z,2.58
2018-10-12T14:52:00.600Z,9.58
2018-10-12T14:54:29.257Z,1.77
2018-10-12T14:56:57.988Z,2.62
2018-10-12T14:59:26.689Z,2.42
2018-10-12T15:01:55.356Z,3.27
2018-10-12T15:04:24.029Z,2.98
2018-10-12T15:06:52.752Z,3.15
2018-10-12T15:09:21.431Z,2.08
2018-10-12T15:11:50.211Z,2.20
2018-10-12T15:14:24.004Z,2.22
2018-10-12T15:16:52.690Z,5.55
2018-10-12T15:19:21.366Z,2.90
2018-10-12T15:21:50.187Z,2.60
2018-10-12T15:24:18.844Z,3.80
2018-10-12T15:26:47.431Z,2.67
2018-10-12T15:29:16.154Z,2.20
2018-10-12T15:31:44.883Z,2.80
2018-10-12T15:34:13.550Z,4.25
2018-10-12T15:36:42.189Z,4.50
2018-10-12T15:39:10.882Z,3.98
2018-10-12T15:41:39.872Z,2.30
2018-10-12T15:44:08.756Z,2.33
2018-10-12T15:46:37.435Z,2.80
2018-10-12T15:49:06.184Z,2.83
2018-10-12T15:51:34.976Z,4.62
2018-10-12T15:54:03.659Z,3.72
2018-10-12T15:56:32.379Z,2.98
2018-10-12T15:59:01.088Z,2.60
2018-10-12T16:01:29.765Z,2.35
2018-10-12T16:03:58.457Z,2.20
2018-10-12T16:06:27.173Z,5.12
2018-10-12T16:08:55.954Z,2.75
2018-10-12T16:11:25.080Z,2.30
2018-10-12T16:13:53.817Z,2.37
2018-10-12T16:16:22.517Z,3.50
2018-10-12T16:18:51.223Z,2.72
2018-10-12T16:21:19.865Z,3.12
2018-10-12T16:23:50.502Z,3.17
2018-10-12T16:26:20.602Z,3.75
2018-10-12T16:28:49.445Z,4.45
2018-10-12T16:31:18.204Z,2.52
2018-10-12T16:33:46.917Z,4.22
2018-10-12T16:36:15.646Z,5.72
2018-10-12T16:38:44.368Z,4.17
2018-10-12T16:41:13.089Z,3.90
2018-10-12T16:43:41.783Z,4.15
2018-10-12T16:46:10.472Z,6.95
2018-10-12T16:48:39.152Z,3.55
2018-10-12T16:51:11.810Z,7.10
2018-10-12T16:53:50.761Z,5.97
2018-10-12T16:56:22.738Z,3.70
2018-10-12T16:58:54.770Z,3.87
2018-10-12T17:01:23.620Z,6.15
2018-10-12T17:03:55.498Z,5.42
2018-10-12T17:06:26.937Z,3.80
2018-10-12T17:08:56.244Z,3.65
2018-10-12T17:11:24.941Z,5.40
2018-10-12T17:13:55.691Z,3.15
2018-10-12T17:16:24.448Z,6.47
2018-10-12T17:18:53.132Z,5.33
2018-10-12T17:21:21.811Z,5.55
2018-10-12T17:23:50.464Z,5.03
2018-10-12T17:26:19.151Z,3.70
2018-10-12T17:28:47.864Z,3.90
2018-10-12T17:31:16.532Z,5.15
2018-10-12T17:33:45.255Z,6.08
2018-10-12T17:36:13.907Z,4.47
2018-10-12T17:38:42.563Z,14.25
2018-10-12T17:41:16.384Z,6.10
2018-10-12T17:43:45.128Z,24.55
2018-10-12T17:46:14.012Z,11.28
2018-10-12T17:48:42.701Z,7.58
2018-10-12T17:51:11.816Z,6.50
2018-10-12T17:53:40.535Z,10.15
2018-10-12T17:56:09.272Z,5.47
2018-10-12T17:58:37.997Z,5.08
2018-10-12T18:01:06.969Z,4.53
2018-10-12T18:03:35.698Z,5.53
2018-10-12T18:06:04.918Z,4.42
2018-10-12T18:08:33.912Z,4.58
2018-10-12T18:11:02.573Z,6.65
2018-10-12T18:13:31.264Z,8.18
2018-10-12T18:15:59.975Z,4.80
2018-10-12T18:18:28.628Z,4.35
2018-10-12T18:20:57.328Z,5.62
2018-10-12T18:23:26.008Z,5.35
2018-10-12T18:25:54.798Z,5.80
2018-10-12T18:28:23.481Z,4.00
2018-10-12T18:30:52.147Z,5.40
2018-10-12T18:33:20.855Z,4.62
2018-10-12T18:35:49.596Z,4.95
2018-10-12T18:38:18.313Z,7.05
2018-10-12T18:40:47.017Z,3.90
2018-10-12T18:43:15.800Z,4.47
2018-10-12T18:45:44.449Z,4.40
2018-10-12T18:48:13.143Z,4.37
2018-10-12T18:50:41.900Z,4.42
2018-10-12T18:53:10.589Z,10.80
2018-10-12T18:55:39.290Z,4.50
2018-10-12T18:58:08.062Z,4.53
2018-10-12T19:00:36.794Z,4.75
2018-10-12T19:03:05.499Z,4.12
2018-10-12T19:05:34.232Z,6.22
2018-10-12T19:08:02.943Z,7.83
2018-10-12T19:10:31.651Z,8.68
2018-10-12T19:13:00.341Z,6.53
2018-10-12T19:15:29.128Z,5.33
2018-10-12T19:17:57.829Z,5.37
2018-10-12T19:20:26.525Z,8.13
2018-10-12T19:22:55.233Z,5.22
2018-10-12T19:25:23.913Z,6.20
2018-10-12T19:27:52.600Z,6.83
2018-10-12T19:30:21.337Z,6.67
2018-10-12T19:32:50.029Z,5.20
2018-10-12T19:35:18.749Z,7.20
2018-10-12T19:37:47.450Z,5.17
2018-10-12T19:40:16.147Z,5.37
2018-10-12T19:42:44.821Z,5.97
2018-10-12T19:45:13.514Z,6.12
2018-10-12T19:47:42.206Z,5.20
2018-10-12T19:50:10.878Z,5.67
2018-10-12T19:52:39.535Z,7.90
2018-10-12T19:55:08.332Z,5.00
2018-10-12T19:57:37.053Z,4.85
2018-10-12T20:00:06.172Z,6.47
2018-10-12T20:02:34.884Z,5.22
2018-10-12T20:05:03.632Z,5.17
2018-10-12T20:07:32.315Z,5.37
2018-10-12T20:10:00.979Z,5.85
2018-10-12T20:12:29.753Z,5.45
2018-10-12T20:14:58.460Z,5.80
2018-10-12T20:17:27.169Z,5.57
2018-10-12T20:19:55.809Z,6.95
2018-10-12T20:22:24.488Z,5.70
2018-10-12T20:24:53.203Z,7.22
2018-10-12T20:27:21.950Z,6.05
2018-10-12T20:29:50.637Z,5.83
2018-10-12T20:32:19.605Z,7.05
2018-10-12T20:34:48.348Z,5.75
2018-10-12T20:37:17.011Z,6.05
2018-10-12T20:39:45.687Z,7.17
2018-10-12T20:42:14.378Z,6.10
2018-10-12T20:44:43.049Z,6.53
2018-10-12T20:47:11.712Z,6.30
2018-10-12T20:49:40.383Z,5.20
2018-10-12T20:52:09.407Z,7.10
2018-10-12T20:54:38.088Z,6.45
2018-10-12T20:57:07.412Z,5.40
2018-10-12T20:59:36.129Z,5.87
2018-10-12T21:02:04.805Z,5.83
2018-10-12T21:04:33.717Z,6.45
2018-10-12T21:07:02.386Z,5.80
2018-10-12T21:09:31.143Z,6.55
2018-10-12T21:12:00.047Z,11.68
2018-10-12T21:14:28.836Z,8.03
2018-10-12T21:16:57.478Z,6.12
2018-10-12T21:19:26.175Z,5.65
2018-10-12T21:21:54.831Z,7.45
2018-10-12T21:24:23.518Z,7.05
2018-10-12T21:26:52.205Z,6.40
2018-10-12T21:29:21.040Z,6.03
2018-10-12T21:31:49.739Z,8.48
2018-10-12T21:34:18.577Z,8.38
2018-10-12T21:36:47.269Z,6.50
2018-10-12T21:39:16.039Z,6.00
2018-10-12T21:41:44.878Z,7.40
2018-10-12T21:44:13.534Z,7.28
2018-10-12T21:46:42.254Z,8.33
2018-10-12T21:49:10.913Z,8.43
2018-10-12T21:51:39.607Z,6.78
2018-10-12T21:54:08.293Z,7.35
2018-10-12T21:56:36.974Z,5.87
2018-10-12T21:59:05.666Z,6.58
2018-10-12T22:01:34.411Z,5.95
2018-10-12T22:04:03.109Z,7.00
2018-10-12T22:06:31.829Z,6.08
2018-10-12T22:09:07.060Z,5.50
2018-10-12T22:11:35.750Z,6.55
2018-10-12T22:14:05.062Z,5.67
2018-10-12T22:16:33.755Z,7.10
2018-10-12T22:19:02.513Z,6.42
2018-10-12T22:21:31.132Z,5.65
2018-10-12T22:23:59.864Z,9.60
2018-10-12T22:26:28.530Z,5.75
2018-10-12T22:28:57.218Z,7.47
2018-10-12T22:31:26.934Z,7.35
2018-10-12T22:33:55.598Z,5.53
2018-10-12T22:36:24.290Z,5.60
2018-10-12T22:38:52.979Z,5.40
2018-10-12T22:41:21.696Z,5.47
2018-10-12T22:43:50.336Z,5.55
2018-10-12T22:46:19.078Z,8.13
2018-10-12T22:48:47.805Z,6.80
2018-10-12T22:51:16.488Z,6.85
2018-10-12T22:53:45.179Z,6.42
2018-10-12T22:56:13.972Z,6.35
2018-10-12T22:58:42.690Z,6.35
2018-10-12T23:01:11.416Z,5.65
2018-10-12T23:03:40.100Z,5.70
2018-10-12T23:06:08.843Z,6.20
2018-10-12T23:08:37.491Z,7.75
2018-10-12T23:11:06.565Z,5.92
2018-10-12T23:13:35.229Z,7.92
2018-10-12T23:16:03.900Z,6.65
2018-10-12T23:18:32.646Z,5.55
2018-10-12T23:21:01.322Z,5.60
2018-10-12T23:23:30.072Z,5.17
2018-10-12T23:25:58.707Z,5.72
2018-10-12T23:28:27.404Z,6.25
2018-10-12T23:30:56.359Z,5.67
2018-10-12T23:33:36.227Z,10.08
2018-10-12T23:36:04.959Z,6.03
2018-10-12T23:38:33.743Z,8.98
2018-10-12T23:41:02.401Z,7.15
2018-10-12T23:43:31.078Z,6.08
2018-10-12T23:45:59.763Z,8.05
2018-10-12T23:48:28.429Z,7.30
2018-10-12T23:50:57.144Z,7.72
2018-10-12T23:53:25.881Z,5.85
2018-10-12T23:55:54.565Z,5.47
2018-10-12T23:58:23.221Z,5.58
